Time;durP1;ratioP1;P1;durP2;ratioP2;P2;SDS_P1;SDS_P2;PMS_P1;PMS_P2;Temp;Humidity;BMP_temperature;BMP_pressure;BME280_temperature;BME280_humidity;BME280_pressure;Samples;Min_cycle;Max_cycle;Signal;HPM_P1;HPM_P2
2021/10/12 00:00:17;;;;;;;6.80;1.17;;;;;;;13.54;73.96;102611.28;4879699;28;20131;-63
2021/10/12 00:02:43;;;;;;;7.07;1.27;;;;;;;13.55;72.84;102615.63;4880732;29;20138;-66
2021/10/12 00:05:08;;;;;;;5.97;1.02;;;;;;;13.60;72.54;102617.53;4889991;29;20063;-66
2021/10/12 00:07:34;;;;;;;7.43;1.48;;;;;;;13.53;73.00;102623.47;4892084;28;20517;-66
2021/10/12 00:09:59;;;;;;;5.15;1.08;;;;;;;13.54;72.03;102616.50;4875826;29;20048;-66
2021/10/12 00:12:24;;;;;;;4.65;1.13;;;;;;;13.55;71.75;102607.78;4878477;28;20517;-65
2021/10/12 00:14:50;;;;;;;7.18;1.23;;;;;;;13.54;71.33;102611.28;4881044;28;20509;-65
2021/10/12 00:17:15;;;;;;;4.88;1.10;;;;;;;13.55;71.52;102613.91;4880890;29;20119;-66
2021/10/12 00:19:41;;;;;;;7.78;1.50;;;;;;;13.49;71.83;102613.72;4892609;29;20498;-66
2021/10/12 00:22:07;;;;;;;8.23;1.40;;;;;;;13.43;72.63;102616.19;4882515;29;20708;-66
2021/10/12 00:24:33;;;;;;;7.18;1.52;;;;;;;13.38;73.78;102607.31;4877320;28;20405;-65
2021/10/12 00:26:58;;;;;;;7.40;1.33;;;;;;;13.34;74.66;102614.19;4888863;29;20044;-65
2021/10/12 00:29:23;;;;;;;11.75;1.40;;;;;;;13.33;74.42;102609.78;4881135;28;20098;-67
2021/10/12 00:31:49;;;;;;;8.70;1.38;;;;;;;13.32;74.79;102610.63;4891608;29;20442;-68
2021/10/12 00:34:18;;;;;;;10.18;1.70;;;;;;;13.29;75.03;102607.03;4870260;29;20032;-67
2021/10/12 00:36:44;;;;;;;7.32;1.33;;;;;;;13.28;75.93;102605.25;4878428;28;20408;-66
2021/10/12 00:39:09;;;;;;;9.18;1.45;;;;;;;13.26;75.65;102604.31;4883415;28;20031;-66
2021/10/12 00:41:35;;;;;;;7.90;1.35;;;;;;;13.23;75.96;102601.63;4890541;28;20049;-65
2021/10/12 00:44:00;;;;;;;8.05;1.42;;;;;;;13.24;76.47;102616.47;4886968;29;20431;-67
2021/10/12 00:46:26;;;;;;;6.22;1.20;;;;;;;13.24;76.51;102606.88;4871224;28;20051;-67
2021/10/12 00:48:51;;;;;;;10.02;1.35;;;;;;;13.23;76.55;102599.00;4886489;28;20078;-66
2021/10/12 00:51:16;;;;;;;4.70;1.10;;;;;;;13.22;76.51;102603.34;4885505;28;20147;-66
2021/10/12 00:53:42;;;;;;;11.32;1.58;;;;;;;13.19;76.73;102604.97;4889179;29;20106;-66
2021/10/12 00:56:08;;;;;;;5.43;1.20;;;;;;;13.21;76.60;102598.94;4869074;29;20168;-67
2021/10/12 00:58:34;;;;;;;7.63;1.25;;;;;;;13.18;76.86;102590.09;4873416;28;20054;-66
2021/10/12 01:00:59;;;;;;;7.20;1.42;;;;;;;13.18;76.97;102583.13;4863860;29;20497;-68
2021/10/12 01:03:25;;;;;;;24.85;1.65;;;;;;;13.16;77.23;102576.09;4888348;29;20074;-65
2021/10/12 01:05:50;;;;;;;10.00;1.75;;;;;;;13.15;77.35;102571.69;4886120;28;20495;-65
2021/10/12 01:08:17;;;;;;;8.68;1.25;;;;;;;13.11;77.24;102568.06;4882184;28;20116;-66
2021/10/12 01:10:42;;;;;;;8.50;1.20;;;;;;;13.09;77.09;102551.41;4883641;29;20083;-66
2021/10/12 01:13:08;;;;;;;7.40;1.15;;;;;;;13.08;77.43;102569.69;4883916;29;20088;-66
2021/10/12 01:15:34;;;;;;;6.25;1.20;;;;;;;13.04;77.58;102560.88;4885493;29;20054;-66
2021/10/12 01:18:00;;;;;;;10.38;1.45;;;;;;;13.01;77.68;102553.78;4882620;29;20603;-66
2021/10/12 01:20:27;;;;;;;9.13;1.58;;;;;;;13.01;77.71;102551.19;4873972;28;20377;-65
2021/10/12 01:22:53;;;;;;;6.57;1.30;;;;;;;12.99;77.54;102536.28;4884148;29;20049;-66
2021/10/12 01:25:18;;;;;;;6.90;1.27;;;;;;;12.97;77.85;102536.22;4889592;28;20055;-66
2021/10/12 01:27:44;;;;;;;7.43;1.55;;;;;;;12.98;77.94;102534.50;4887553;29;20505;-66
2021/10/12 01:30:11;;;;;;;7.35;1.50;;;;;;;13.00;77.62;102524.94;4886936;29;20103;-67
2021/10/12 01:32:41;;;;;;;5.38;1.45;;;;;;;12.98;77.84;102524.03;4874990;28;21321;-66
2021/10/12 01:35:08;;;;;;;5.18;1.35;;;;;;;13.00;77.88;102522.31;4890052;29;20066;-66
2021/10/12 01:37:33;;;;;;;7.72;1.50;;;;;;;13.02;77.48;102520.66;4876316;29;20102;-67
2021/10/12 01:39:59;;;;;;;9.30;1.60;;;;;;;13.02;78.08;102518.03;4889555;29;20044;-66
2021/10/12 01:42:25;;;;;;;8.23;1.52;;;;;;;13.06;77.61;102512.03;4874069;28;20054;-65
2021/10/12 01:44:52;;;;;;;8.45;1.70;;;;;;;13.07;77.79;102502.44;4858635;29;20070;-66
2021/10/12 01:47:18;;;;;;;11.60;1.70;;;;;;;13.05;77.86;102483.22;4884173;29;20138;-66
2021/10/12 01:49:43;;;;;;;9.15;1.60;;;;;;;13.02;77.68;102482.25;4885757;28;20126;-66
2021/10/12 01:52:12;;;;;;;8.95;1.70;;;;;;;12.98;77.75;102490.88;4882493;29;20043;-66
2021/10/12 01:54:38;;;;;;;9.80;1.83;;;;;;;12.98;77.62;102487.38;4862855;29;20052;-66
2021/10/12 01:57:03;;;;;;;8.23;1.60;;;;;;;12.98;77.77;102479.53;4886052;29;20083;-66
2021/10/12 01:59:29;;;;;;;10.07;1.60;;;;;;;12.97;77.85;102476.00;4884210;29;20623;-66
2021/10/12 02:01:54;;;;;;;8.45;1.80;;;;;;;12.99;77.69;102482.16;4883615;29;20789;-67
2021/10/12 02:04:19;;;;;;;9.20;1.77;;;;;;;12.96;78.11;102469.00;4866517;29;20052;-67
2021/10/12 02:06:45;;;;;;;5.22;1.50;;;;;;;12.98;78.10;102466.44;4883356;28;20602;-67
2021/10/12 02:09:10;;;;;;;7.32;1.70;;;;;;;12.99;78.18;102461.22;4880363;29;20305;-66
2021/10/12 02:11:36;;;;;;;8.20;1.80;;;;;;;13.00;78.11;102459.50;4867215;29;20127;-67
2021/10/12 02:14:02;;;;;;;7.55;1.67;;;;;;;12.99;78.16;102448.13;4884857;28;20568;-68
2021/10/12 02:16:27;;;;;;;8.73;1.85;;;;;;;13.00;78.22;102443.78;4871932;28;20055;-67
2021/10/12 02:18:53;;;;;;;5.78;1.58;;;;;;;13.01;78.33;102443.84;4884506;28;20056;-66
2021/10/12 02:21:18;;;;;;;9.10;1.80;;;;;;;13.00;78.17;102434.19;4889261;28;20032;-67
2021/10/12 02:23:44;;;;;;;7.38;1.80;;;;;;;13.02;78.25;102435.13;4884903;28;20394;-67
2021/10/12 02:26:09;;;;;;;7.07;1.70;;;;;;;13.07;77.97;102429.13;4884853;29;20062;-66
2021/10/12 02:28:35;;;;;;;15.85;2.15;;;;;;;13.08;78.47;102439.66;4859950;28;20507;-66
2021/10/12 02:31:00;;;;;;;13.75;2.00;;;;;;;13.14;78.16;102447.72;4879007;29;20056;-66
2021/10/12 02:33:26;;;;;;;12.30;1.90;;;;;;;13.14;77.98;102450.34;4886576;29;20051;-66
2021/10/12 02:35:52;;;;;;;9.18;1.90;;;;;;;13.16;78.00;102447.78;4887531;28;20047;-66
2021/10/12 02:38:18;;;;;;;10.70;2.00;;;;;;;13.22;77.82;102442.69;4863199;29;20082;-66
2021/10/12 02:40:43;;;;;;;10.68;2.20;;;;;;;13.17;77.97;102431.22;4883258;29;20073;-67
2021/10/12 02:43:09;;;;;;;12.85;2.25;;;;;;;13.16;78.12;102422.47;4862616;29;20564;-66
2021/10/12 02:45:34;;;;;;;9.15;2.65;;;;;;;13.20;78.08;102420.81;4889242;28;20500;-66
2021/10/12 02:48:00;;;;;;;8.90;2.10;;;;;;;13.19;78.10;102417.31;4882386;28;20170;-66
2021/10/12 02:50:25;;;;;;;6.70;1.90;;;;;;;13.21;77.98;102413.00;4875426;29;20067;-67
2021/10/12 02:52:50;;;;;;;7.57;2.10;;;;;;;13.22;78.23;102413.91;4881011;29;20220;-66
2021/10/12 02:55:16;;;;;;;9.63;2.30;;;;;;;13.24;78.19;102404.31;4886397;29;20098;-66
2021/10/12 02:57:41;;;;;;;12.75;2.70;;;;;;;13.24;78.28;102404.31;4887170;28;20506;-67
2021/10/12 03:00:07;;;;;;;13.88;2.75;;;;;;;13.24;78.23;102397.34;4888823;29;20047;-65
2021/10/12 03:02:33;;;;;;;12.73;2.58;;;;;;;13.28;78.35;102382.63;4872679;29;20768;-66
2021/10/12 03:04:58;;;;;;;11.52;2.50;;;;;;;13.32;77.92;102379.22;4889029;29;20047;-66
2021/10/12 03:07:23;;;;;;;8.57;2.78;;;;;;;13.31;78.06;102391.44;4894895;28;20601;-66
2021/10/12 03:09:49;;;;;;;10.07;2.67;;;;;;;13.30;78.29;102376.56;4880611;29;20553;-66
2021/10/12 03:12:16;;;;;;;9.88;2.95;;;;;;;13.31;77.98;102373.09;4877320;28;20587;-66
2021/10/12 03:14:41;;;;;;;10.80;2.67;;;;;;;13.29;78.50;102360.84;4880490;28;20047;-67
2021/10/12 03:17:06;;;;;;;8.40;2.50;;;;;;;13.28;78.31;102362.56;4886394;29;20055;-66
2021/10/12 03:19:32;;;;;;;10.43;2.80;;;;;;;13.23;78.69;102369.41;4873469;29;20433;-66
2021/10/12 03:22:18;;;;;;;15.30;2.83;;;;;;;13.11;79.14;102363.81;4872491;29;20047;-67
2021/10/12 03:24:43;;;;;;;12.00;3.03;;;;;;;13.23;79.04;102365.91;4872240;28;20043;-67
2021/10/12 03:27:10;;;;;;;11.15;3.50;;;;;;;13.34;78.44;102364.44;4844026;29;20040;-67
2021/10/12 03:29:36;;;;;;;11.88;3.70;;;;;;;13.36;78.31;102352.25;4885768;29;20495;-66
2021/10/12 03:32:02;;;;;;;12.95;3.78;;;;;;;13.35;78.42;102353.13;4881334;29;20738;-67
2021/10/12 03:34:28;;;;;;;12.05;3.85;;;;;;;13.35;78.41;102348.78;4875232;29;20405;-66
2021/10/12 03:36:54;;;;;;;11.90;3.88;;;;;;;13.36;78.51;102350.53;4881751;29;20602;-66
2021/10/12 03:39:20;;;;;;;9.50;3.75;;;;;;;13.37;78.63;102344.44;4886822;29;20092;-66
2021/10/12 03:41:45;;;;;;;11.25;4.25;;;;;;;13.35;78.67;102340.91;4868652;29;20478;-66
2021/10/12 03:44:11;;;;;;;10.70;3.65;;;;;;;13.37;78.69;102336.59;4864258;29;20087;-66
2021/10/12 03:46:36;;;;;;;11.43;3.80;;;;;;;13.36;78.76;102332.19;4861010;29;20273;-66
2021/10/12 03:49:02;;;;;;;11.13;3.72;;;;;;;13.38;78.60;102345.34;4887275;29;20185;-67
2021/10/12 03:51:27;;;;;;;12.77;3.85;;;;;;;13.42;78.66;102315.72;4874678;29;20050;-66
2021/10/12 03:53:52;;;;;;;14.13;4.20;;;;;;;13.40;78.69;102328.81;4887024;29;20058;-66
2021/10/12 03:56:18;;;;;;;15.98;4.10;;;;;;;13.44;78.75;102323.63;4867839;29;20051;-66
2021/10/12 03:58:43;;;;;;;10.95;3.88;;;;;;;13.43;78.84;102322.75;4877436;28;20044;-66
2021/10/12 04:01:09;;;;;;;11.88;4.18;;;;;;;13.45;78.57;102320.19;4878261;28;20428;-66
2021/10/12 04:03:34;;;;;;;13.32;4.32;;;;;;;13.47;78.82;102310.63;4868719;29;20143;-66
2021/10/12 04:06:00;;;;;;;14.00;4.10;;;;;;;13.41;78.81;102306.13;4883372;29;20059;-66
2021/10/12 04:08:25;;;;;;;12.82;3.85;;;;;;;13.47;78.71;102305.41;4879238;28;20106;-66
2021/10/12 04:10:50;;;;;;;16.60;4.38;;;;;;;13.50;78.75;102306.34;4868328;29;20044;-64
2021/10/12 04:13:16;;;;;;;14.07;3.97;;;;;;;13.57;78.56;102302.13;4884789;28;20204;-68
2021/10/12 04:15:41;;;;;;;13.77;4.07;;;;;;;13.54;78.87;102295.06;4865373;29;20130;-67
2021/10/12 04:18:09;;;;;;;10.30;3.85;;;;;;;13.57;78.63;102286.41;4888416;28;20047;-67
2021/10/12 04:20:35;;;;;;;12.25;3.90;;;;;;;13.57;78.75;102287.31;4873943;29;21327;-67
2021/10/12 04:23:02;;;;;;;17.42;4.13;;;;;;;13.56;78.79;102282.00;4861907;29;20694;-67
2021/10/12 04:25:27;;;;;;;18.85;4.43;;;;;;;13.56;78.76;102285.53;4885816;29;20100;-67
2021/10/12 04:27:53;;;;;;;16.65;4.20;;;;;;;13.58;78.80;102282.94;4869738;29;20052;-66
2021/10/12 04:30:18;;;;;;;14.95;3.97;;;;;;;13.61;78.76;102280.38;4876347;29;20027;-66
2021/10/12 04:32:43;;;;;;;17.15;4.13;;;;;;;13.63;78.60;102278.69;4887621;28;20051;-66
2021/10/12 04:35:09;;;;;;;17.23;4.18;;;;;;;13.63;78.91;102279.59;4886691;29;20035;-67
2021/10/12 04:37:34;;;;;;;15.88;4.15;;;;;;;13.68;78.78;102277.06;4884075;29;20043;-66
2021/10/12 04:40:00;;;;;;;11.65;3.97;;;;;;;13.68;78.25;102270.09;4885827;28;20119;-67
2021/10/12 04:42:25;;;;;;;15.80;3.42;;;;;;;13.71;78.40;102267.56;4872626;28;20074;-66
2021/10/12 04:44:53;;;;;;;17.38;3.60;;;;;;;13.71;78.51;102266.66;4863845;29;20048;-66
2021/10/12 04:47:19;;;;;;;13.52;3.38;;;;;;;13.75;78.25;102271.13;4880127;29;20635;-67
2021/10/12 04:49:46;;;;;;;13.00;2.92;;;;;;;13.76;78.31;102267.66;4883884;29;20059;-68
2021/10/12 04:52:11;;;;;;;18.58;3.20;;;;;;;13.71;78.34;102259.69;4865127;29;20054;-67
2021/10/12 04:54:37;;;;;;;12.52;2.80;;;;;;;13.72;78.47;102263.19;4871622;29;21946;-67
2021/10/12 04:57:02;;;;;;;16.27;3.47;;;;;;;13.68;78.52;102258.72;4890596;28;20040;-67
2021/10/12 04:59:28;;;;;;;14.13;3.13;;;;;;;13.70;78.24;102262.25;4882760;29;20044;-66
2021/10/12 05:01:53;;;;;;;12.30;3.03;;;;;;;13.70;78.31;102257.91;4887772;28;20044;-67
2021/10/12 05:04:18;;;;;;;14.30;2.85;;;;;;;13.70;77.84;102259.66;4871395;29;20550;-64
2021/10/12 05:06:44;;;;;;;13.13;3.10;;;;;;;13.75;78.38;102258.00;4882499;29;20185;-67
2021/10/12 05:09:09;;;;;;;15.68;3.33;;;;;;;13.73;78.13;102251.84;4882900;29;21019;-67
2021/10/12 05:11:34;;;;;;;19.73;3.67;;;;;;;13.72;78.40;102256.19;4875889;29;20650;-68
2021/10/12 05:14:00;;;;;;;17.42;3.70;;;;;;;13.78;78.12;102240.59;4883390;29;20489;-66
2021/10/12 05:16:28;;;;;;;23.55;3.75;;;;;;;13.77;78.38;102245.84;4874428;28;20563;-67
2021/10/12 05:18:57;;;;;;;20.48;3.53;;;;;;;13.79;78.25;102245.00;4881623;29;20107;-67
2021/10/12 05:21:23;;;;;;;14.43;2.90;;;;;;;13.81;78.22;102239.78;4875643;29;20514;-67
2021/10/12 05:23:48;;;;;;;15.98;3.30;;;;;;;13.79;78.13;102246.72;4881843;29;20048;-68
2021/10/12 05:26:15;;;;;;;18.15;3.50;;;;;;;13.84;78.13;102236.38;4882137;28;20825;-66
2021/10/12 05:28:40;;;;;;;12.88;3.40;;;;;;;13.84;77.98;102239.00;4870548;28;20125;-67
2021/10/12 05:31:06;;;;;;;17.42;3.78;;;;;;;13.79;78.14;102233.63;4883233;29;20464;-66
2021/10/12 05:33:31;;;;;;;12.27;3.42;;;;;;;13.82;78.07;102241.56;4884960;29;20044;-67
2021/10/12 05:35:57;;;;;;;12.23;3.08;;;;;;;13.81;78.01;102234.56;4886597;28;20044;-67
2021/10/12 05:38:22;;;;;;;19.73;3.60;;;;;;;13.81;77.94;102224.94;4851344;28;20669;-69
2021/10/12 05:40:48;;;;;;;15.80;3.35;;;;;;;13.86;77.81;102222.41;4882223;28;20343;-67
2021/10/12 05:43:17;;;;;;;12.95;3.00;;;;;;;13.89;77.61;102221.63;4886030;28;20071;-67
2021/10/12 05:45:42;;;;;;;18.95;3.42;;;;;;;13.94;77.49;102227.84;4881621;29;20055;-67
2021/10/12 05:48:09;;;;;;;12.73;2.90;;;;;;;13.91;77.46;102220.78;4884636;29;20044;-67
2021/10/12 05:50:36;;;;;;;17.35;3.05;;;;;;;13.91;77.44;102218.16;4875123;28;20828;-68
2021/10/12 05:53:21;;;;;;;13.63;2.97;;;;;;;13.91;77.45;102212.03;4885815;28;20071;-66
2021/10/12 05:55:56;;;;;;;12.43;2.65;;;;;;;13.89;77.29;102214.63;4879242;29;20639;-66
2021/10/12 06:01:22;;;;;;;16.45;2.90;;;;;;;13.93;77.42;102215.56;4851468;29;20625;-66
2021/10/12 06:03:48;;;;;;;9.82;2.75;;;;;;;13.96;77.20;102211.31;4883294;28;20079;-67
2021/10/12 06:06:14;;;;;;;15.50;2.95;;;;;;;13.98;76.89;102206.94;4886651;28;20126;-67
2021/10/12 06:08:41;;;;;;;13.93;2.70;;;;;;;14.02;76.99;102208.81;4878418;28;23265;-65
2021/10/12 06:11:07;;;;;;;17.52;2.80;;;;;;;14.07;76.65;102206.28;4887209;29;20051;-67
2021/10/12 06:13:34;;;;;;;13.75;2.60;;;;;;;14.12;76.39;102205.50;4885629;29;20118;-66
2021/10/12 06:15:59;;;;;;;14.68;2.72;;;;;;;14.15;76.56;102202.91;4885106;28;20166;-66
2021/10/12 06:18:26;;;;;;;14.10;2.92;;;;;;;14.16;76.52;102203.81;4881624;28;20051;-66
2021/10/12 06:20:52;;;;;;;12.52;2.67;;;;;;;14.09;76.72;102205.44;4885477;28;20168;-67
2021/10/12 06:23:18;;;;;;;15.55;3.13;;;;;;;14.14;76.78;102210.78;4886993;28;20071;-66
2021/10/12 06:25:45;;;;;;;16.65;3.00;;;;;;;14.12;76.80;102204.63;4861599;29;20497;-66
2021/10/12 06:28:13;;;;;;;13.82;2.65;;;;;;;14.17;76.90;102202.97;4867889;29;20040;-66
2021/10/12 06:30:40;;;;;;;18.02;3.08;;;;;;;14.20;76.78;102200.41;4849322;28;20036;-67
2021/10/12 06:33:05;;;;;;;14.27;2.53;;;;;;;14.25;76.96;102204.00;4875696;29;20688;-66
2021/10/12 06:35:31;;;;;;;15.02;2.78;;;;;;;14.36;76.57;102196.34;4856684;29;20032;-67
2021/10/12 06:38:00;;;;;;;11.55;2.28;;;;;;;14.44;76.31;102194.78;4883769;29;20785;-67
2021/10/12 06:40:26;;;;;;;9.68;2.30;;;;;;;14.48;75.98;102193.97;4878911;28;20079;-67
2021/10/12 06:42:53;;;;;;;11.95;2.28;;;;;;;14.51;75.80;102192.31;4885017;29;20036;-67
2021/10/12 06:45:20;;;;;;;9.85;2.00;;;;;;;14.46;75.78;102196.56;4871878;29;20425;-66
2021/10/12 06:47:46;;;;;;;8.30;1.98;;;;;;;14.56;75.47;102200.25;4871520;29;20074;-68
2021/10/12 06:50:11;;;;;;;10.00;2.28;;;;;;;14.55;75.40;102198.47;4868778;29;20055;-65
2021/10/12 06:52:37;;;;;;;11.93;2.20;;;;;;;14.49;75.73;102195.75;4870142;28;20064;-66
2021/10/12 06:55:03;;;;;;;8.18;1.83;;;;;;;14.64;74.96;102208.28;4882006;29;20537;-65
2021/10/12 06:57:29;;;;;;;11.63;2.50;;;;;;;14.47;75.65;102205.31;4883932;29;20103;-67
2021/10/12 06:59:55;;;;;;;9.40;2.28;;;;;;;14.57;75.47;102200.28;5035861;23;20183;-70
2021/10/12 07:02:21;;;;;;;11.35;2.35;;;;;;;14.57;75.53;102208.16;4879795;28;20043;-67
2021/10/12 07:04:46;;;;;;;10.88;2.20;;;;;;;14.62;75.95;102203.00;4901243;28;21556;-68
2021/10/12 07:07:12;;;;;;;7.88;2.17;;;;;;;14.63;76.11;102204.75;4890839;28;20042;-67
2021/10/12 07:09:37;;;;;;;9.38;2.17;;;;;;;14.64;76.09;102195.16;4901545;28;20138;-70
2021/10/12 07:12:03;;;;;;;9.55;2.13;;;;;;;14.70;76.10;102192.63;4894174;28;20054;-68
2021/10/12 07:14:29;;;;;;;8.98;2.45;;;;;;;14.71;76.01;102194.38;4874543;28;20047;-61
2021/10/12 07:16:55;;;;;;;7.85;2.20;;;;;;;14.74;75.90;102202.31;4908321;28;20125;-65
2021/10/12 07:19:20;;;;;;;14.88;2.30;;;;;;;14.66;76.14;102198.66;4872790;28;20032;-65
2021/10/12 07:21:46;;;;;;;9.18;2.42;;;;;;;14.58;76.40;102188.03;4895979;28;20238;-65
2021/10/12 07:24:12;;;;;;;8.65;2.08;;;;;;;14.59;76.03;102188.06;4896820;28;20142;-66
2021/10/12 07:26:38;;;;;;;7.45;2.22;;;;;;;14.52;76.32;102180.94;4889501;28;20052;-64
2021/10/12 07:29:03;;;;;;;9.90;2.20;;;;;;;14.55;76.73;102178.38;4906710;28;20330;-66
2021/10/12 07:31:29;;;;;;;9.57;2.10;;;;;;;14.53;76.81;102177.44;4899151;28;20035;-66
2021/10/12 07:33:54;;;;;;;10.25;2.30;;;;;;;14.66;76.50;102173.31;4909068;28;20078;-66
2021/10/12 07:36:20;;;;;;;10.98;2.38;;;;;;;14.70;76.47;102169.88;4883930;28;20137;-65
2021/10/12 07:38:45;;;;;;;12.88;2.38;;;;;;;14.77;76.68;102169.13;4904992;28;20689;-65
2021/10/12 07:41:12;;;;;;;8.63;2.15;;;;;;;14.96;76.31;102168.56;4907023;28;20075;-64
2021/10/12 07:43:38;;;;;;;11.25;2.15;;;;;;;15.11;76.09;102167.94;4877039;28;20438;-65
2021/10/12 07:46:04;;;;;;;11.40;2.47;;;;;;;15.17;75.45;102172.38;4869695;29;20526;-65
2021/10/12 07:48:30;;;;;;;12.90;2.40;;;;;;;15.28;75.31;102160.28;4884798;28;20043;-66
2021/10/12 07:50:56;;;;;;;13.65;2.13;;;;;;;15.37;75.15;102160.41;4900301;28;20043;-66
2021/10/12 07:53:21;;;;;;;11.85;2.05;;;;;;;15.36;74.90;102156.03;4897516;29;20123;-65
2021/10/12 07:55:55;;;;;;;9.23;2.15;;;;;;;15.40;74.79;102156.09;4867913;28;20522;-65
2021/10/12 07:58:21;;;;;;;;;;;;;;;15.42;73.96;102151.75;4866759;28;20070;-65
2021/10/12 08:00:46;;;;;;;11.38;1.88;;;;;;;15.51;73.67;102153.59;4882059;29;20307;-66
2021/10/12 08:03:13;;;;;;;10.75;2.10;;;;;;;15.61;73.73;102152.91;4907017;28;20174;-66
2021/10/12 08:05:38;;;;;;;9.23;2.05;;;;;;;15.78;74.03;102153.13;4892218;28;20142;-66
2021/10/12 08:08:04;;;;;;;6.80;1.70;;;;;;;16.07;73.67;102150.84;4872762;29;20122;-66
2021/10/12 08:10:31;;;;;;;10.82;2.00;;;;;;;16.36;73.32;102148.50;4894223;28;20039;-66
2021/10/12 08:13:00;;;;;;;9.82;1.70;;;;;;;16.61;72.82;102154.03;4898229;28;20047;-65
2021/10/12 08:15:26;;;;;;;7.65;2.10;;;;;;;16.90;72.00;102149.00;4877541;29;20428;-65
2021/10/12 08:17:52;;;;;;;9.85;2.13;;;;;;;17.10;70.77;102145.63;4864436;29;20043;-65
2021/10/12 08:20:20;;;;;;;6.95;1.83;;;;;;;17.35;70.10;102147.56;4883779;28;20043;-65
2021/10/12 08:22:47;;;;;;;7.47;1.90;;;;;;;17.51;68.23;102144.13;4890541;29;20053;-67
2021/10/12 08:25:13;;;;;;;7.68;1.88;;;;;;;17.58;68.08;102145.03;4886255;28;20045;-65
2021/10/12 08:27:44;;;;;;;8.00;1.60;;;;;;;17.52;66.06;102139.72;4894381;28;20405;-66
2021/10/12 08:30:12;;;;;;;10.23;2.00;;;;;;;17.69;66.54;102143.34;4879046;28;20082;-67
2021/10/12 08:32:38;;;;;;;9.98;1.50;;;;;;;17.78;65.52;102139.03;4885514;28;21254;-64
2021/10/12 08:35:25;;;;;;;8.50;1.83;;;;;;;17.97;65.68;102137.34;4905694;28;20039;-65
2021/10/12 08:37:50;;;;;;;11.02;1.70;;;;;;;18.12;65.88;102139.13;4857488;29;20070;-65
2021/10/12 08:40:18;;;;;;;7.25;1.80;;;;;;;17.94;64.88;102134.66;4871460;28;20035;-65
2021/10/12 08:42:48;;;;;;;7.97;1.80;;;;;;;17.82;66.36;102132.00;4878562;28;20463;-65
2021/10/12 08:45:15;;;;;;;8.18;1.73;;;;;;;17.45;65.26;102133.53;4906481;28;20145;-65
2021/10/12 08:47:40;;;;;;;8.07;1.70;;;;;;;17.51;64.69;102127.41;4898985;28;20465;-65
2021/10/12 08:50:08;;;;;;;5.95;1.67;;;;;;;17.37;64.93;102136.16;4908751;28;20039;-65
2021/10/12 08:52:34;;;;;;;8.48;1.70;;;;;;;17.35;65.76;102139.66;4878562;28;20049;-65
2021/10/12 08:54:59;;;;;;;9.65;1.73;;;;;;;17.39;66.33;102137.03;4882801;28;20043;-66
2021/10/12 08:57:36;;;;;;;7.28;1.63;;;;;;;17.64;66.46;102139.81;4899555;28;20054;-65
2021/10/12 09:00:05;;;;;;;9.93;2.00;;;;;;;17.72;66.54;102141.63;4885646;28;20055;-66
2021/10/12 09:02:30;;;;;;;11.45;1.80;;;;;;;17.77;66.78;102131.09;4875722;28;20349;-66
2021/10/12 09:04:55;;;;;;;8.10;1.80;;;;;;;17.70;66.63;102124.03;4852418;28;20051;-66
2021/10/12 09:07:25;;;;;;;8.82;1.90;;;;;;;17.69;66.39;102120.50;4854464;29;20428;-66
2021/10/12 09:09:52;;;;;;;5.95;1.67;;;;;;;17.86;66.66;102128.50;4882263;28;20122;-65
2021/10/12 09:12:18;;;;;;;8.40;1.77;;;;;;;17.96;66.36;102116.22;4876701;28;20646;-66
2021/10/12 09:15:00;;;;;;;10.90;2.03;;;;;;;18.16;65.65;102109.22;4904324;28;20049;-66
2021/10/12 09:17:30;;;;;;;10.07;1.90;;;;;;;18.55;65.50;102105.75;4872656;29;20624;-66
2021/10/12 09:19:57;;;;;;;11.68;1.98;;;;;;;18.59;63.84;102104.91;4907943;28;20035;-66
2021/10/12 09:22:22;;;;;;;9.68;1.60;;;;;;;18.79;63.06;102104.88;4864652;28;20163;-65
2021/10/12 09:24:49;;;;;;;13.95;2.38;;;;;;;18.66;62.88;102104.03;4889565;28;20118;-65
2021/10/12 09:27:15;;;;;;;9.55;1.90;;;;;;;18.50;62.78;102111.00;4883348;28;20055;-65
2021/10/12 09:29:48;;;;;;;11.25;1.90;;;;;;;18.41;62.60;102110.16;4866679;28;20099;-65
2021/10/12 09:32:13;;;;;;;7.47;1.70;;;;;;;18.59;63.60;102104.91;4886799;28;20489;-65
2021/10/12 09:34:41;;;;;;;14.40;1.75;;;;;;;18.82;62.97;102103.13;4876281;28;20051;-65
2021/10/12 09:37:08;;;;;;;12.07;2.08;;;;;;;18.94;63.21;102118.97;4871489;29;20031;-65
2021/10/12 09:39:46;;;;;;;8.07;1.83;;;;;;;18.35;64.36;102111.03;4889612;28;20049;-66
2021/10/12 09:42:14;;;;;;;8.55;1.50;;;;;;;17.65;67.15;102102.91;4883292;28;20070;-67
2021/10/12 09:44:58;;;;;;;7.47;1.50;;;;;;;17.06;68.25;102102.59;4865865;28;20539;-65
2021/10/12 09:47:25;;;;;;;11.98;2.35;;;;;;;16.78;70.21;102103.25;4898163;28;20163;-65
2021/10/12 09:50:11;;;;;;;8.65;1.95;;;;;;;16.53;71.59;102097.75;4872242;29;20309;-65
2021/10/12 09:52:41;;;;;;;12.07;2.20;;;;;;;16.45;71.73;102107.38;4865702;28;20509;-65
2021/10/12 09:55:08;;;;;;;11.32;2.20;;;;;;;16.40;72.21;102122.25;4893921;28;20055;-65
2021/10/12 09:57:34;;;;;;;13.57;2.30;;;;;;;16.10;72.86;102114.03;4875940;28;20404;-65
2021/10/12 10:00:01;;;;;;;16.90;2.90;;;;;;;15.80;73.36;102125.09;4894580;28;20047;-67
2021/10/12 10:02:26;;;;;;;9.15;1.80;;;;;;;15.67;73.65;102123.19;4875882;28;20036;-67
2021/10/12 10:04:53;;;;;;;12.80;2.08;;;;;;;15.47;74.14;102115.00;4884756;29;20456;-66
2021/10/12 10:07:27;;;;;;;8.48;1.83;;;;;;;15.04;75.36;102110.91;4904379;28;20039;-66
2021/10/12 10:09:57;;;;;;;11.05;1.70;;;;;;;15.24;75.83;102117.34;4899151;28;20054;-65
2021/10/12 10:12:23;;;;;;;13.57;1.70;;;;;;;15.28;75.54;102118.25;4868314;28;20058;-65
2021/10/12 10:14:49;;;;;;;20.95;1.90;;;;;;;15.37;75.67;102116.63;4887872;29;20138;-65
2021/10/12 10:17:14;;;;;;;10.00;1.83;;;;;;;15.56;75.76;102101.13;4901890;28;20043;-65
2021/10/12 10:19:41;;;;;;;14.65;1.80;;;;;;;15.84;75.73;102105.88;4901939;28;20509;-65
2021/10/12 10:22:06;;;;;;;9.85;2.95;;;;;;;16.02;74.90;102100.81;4881905;29;20058;-65
2021/10/12 10:24:55;;;;;;;15.13;2.67;;;;;;;16.23;74.85;102100.13;4873939;28;20039;-65
2021/10/12 10:27:33;;;;;;;12.38;2.42;;;;;;;16.38;74.61;102100.28;4897670;28;20043;-65
2021/10/12 10:30:21;;;;;;;13.35;2.40;;;;;;;16.59;74.23;102095.22;4901460;28;20562;-65
2021/10/12 10:32:50;;;;;;;12.93;2.50;;;;;;;16.74;73.91;102105.00;4891981;28;20895;-65
2021/10/12 10:35:31;;;;;;;13.30;2.22;;;;;;;16.94;74.04;102102.50;4901804;28;20042;-65
2021/10/12 10:38:19;;;;;;;14.77;2.38;;;;;;;16.97;73.11;102087.59;4886573;28;20516;-65
2021/10/12 10:40:48;;;;;;;9.65;1.80;;;;;;;17.24;72.23;102088.63;4899952;28;20055;-66
2021/10/12 10:43:14;;;;;;;7.60;1.30;;;;;;;17.47;71.84;102094.91;4891225;28;20054;-65
2021/10/12 10:45:42;;;;;;;10.38;1.45;;;;;;;17.10;69.71;102090.31;4880367;28;21146;-65
2021/10/12 10:48:11;;;;;;;3.80;0.75;;;;;;;16.20;71.43;102100.09;4905091;28;20047;-65
2021/10/12 10:50:37;;;;;;;7.35;0.73;;;;;;;15.75;73.50;102098.75;4893490;28;20491;-65
2021/10/12 10:53:05;;;;;;;3.10;0.65;;;;;;;15.82;73.64;102104.97;4882446;28;20416;-64
2021/10/12 10:55:44;;;;;;;7.97;0.90;;;;;;;15.54;74.95;102103.75;4889379;29;20530;-66
2021/10/12 10:58:17;;;;;;;3.22;0.80;;;;;;;15.50;76.02;102101.91;4886939;28;20501;-66
2021/10/12 11:00:53;;;;;;;6.22;0.80;;;;;;;15.16;76.96;102099.69;4901208;28;20055;-65
2021/10/12 11:03:25;;;;;;;7.60;0.80;;;;;;;15.42;76.73;102104.44;4905260;28;20039;-65
2021/10/12 11:05:50;;;;;;;3.13;0.63;;;;;;;15.60;76.42;102110.84;4906934;28;20047;-65
2021/10/12 11:08:24;;;;;;;3.22;0.47;;;;;;;15.53;75.29;102109.88;4901504;28;20054;-65
2021/10/12 11:11:04;;;;;;;3.00;0.50;;;;;;;15.55;75.11;102104.63;4906749;28;20047;-65
2021/10/12 11:13:35;;;;;;;1.83;0.60;;;;;;;15.85;75.06;102106.75;4887980;28;20075;-65
2021/10/12 11:16:03;;;;;;;2.78;0.52;;;;;;;15.79;74.88;102103.19;4875010;28;20335;-64
2021/10/12 11:18:29;;;;;;;2.60;0.75;;;;;;;15.74;74.70;102103.97;4889674;28;20056;-65
2021/10/12 11:20:59;;;;;;;3.22;0.80;;;;;;;15.85;74.84;102101.50;4888918;29;20406;-64
2021/10/12 11:23:28;;;;;;;2.58;0.50;;;;;;;15.36;74.92;102103.50;4906964;28;20048;-65